createdAt,value
2019-03-24T00:00:30.913Z,7.43
2019-03-24T00:03:01.601Z,26.63
2019-03-24T00:05:32.385Z,27.63
2019-03-24T00:08:03.104Z,31.93
2019-03-24T00:10:33.716Z,13.13
2019-03-24T00:13:05.138Z,18.63
2019-03-24T00:15:35.885Z,15.30
2019-03-24T00:18:07.440Z,9.07
2019-03-24T00:20:37.921Z,16.63
2019-03-24T00:23:08.472Z,21.17
2019-03-24T00:25:38.981Z,18.93
2019-03-24T00:28:09.483Z,16.23
2019-03-24T00:30:40.504Z,12.90
2019-03-24T00:33:11.056Z,17.07
2019-03-24T00:35:41.584Z,13.80
2019-03-24T00:38:12.112Z,15.50
2019-03-24T00:40:42.676Z,7.27
2019-03-24T00:43:13.749Z,20.03
2019-03-24T00:45:46.130Z,9.40
2019-03-24T00:48:17.204Z,10.97
2019-03-24T00:50:47.961Z,7.07
2019-03-24T00:53:18.485Z,21.97
2019-03-24T00:55:49.178Z,6.37
2019-03-24T00:58:19.813Z,13.13
2019-03-24T01:00:51.538Z,9.53
2019-03-24T01:03:22.252Z,7.30
2019-03-24T01:05:52.930Z,16.30
2019-03-24T01:08:23.800Z,12.70
2019-03-24T01:10:54.671Z,5.33
2019-03-24T01:13:25.654Z,11.23
2019-03-24T01:15:56.990Z,13.23
2019-03-24T01:18:27.629Z,7.00
2019-03-24T01:20:58.899Z,16.00
2019-03-24T01:23:30.267Z,9.33
2019-03-24T01:26:00.833Z,9.73
2019-03-24T01:28:31.905Z,11.40
2019-03-24T01:31:02.998Z,10.00
2019-03-24T01:33:33.590Z,12.47
2019-03-24T01:36:04.712Z,14.33
2019-03-24T01:38:35.241Z,5.57
2019-03-24T01:41:08.007Z,8.13
2019-03-24T01:43:38.107Z,11.73
2019-03-24T01:46:08.653Z,6.53
2019-03-24T01:48:39.625Z,8.63
2019-03-24T01:51:10.168Z,4.47
2019-03-24T01:53:40.756Z,13.03
2019-03-24T01:56:11.265Z,11.43
2019-03-24T01:58:42.064Z,15.33
2019-03-24T02:01:13.204Z,19.67
2019-03-24T02:03:43.949Z,17.17
2019-03-24T02:06:15.279Z,8.20
2019-03-24T02:08:45.847Z,14.23
2019-03-24T02:11:17.272Z,11.70
2019-03-24T02:13:48.181Z,9.30
2019-03-24T02:16:19.256Z,9.37
2019-03-24T02:18:50.250Z,15.93
2019-03-24T02:21:20.781Z,10.33
2019-03-24T02:23:51.576Z,20.67
2019-03-24T02:26:22.393Z,7.57
2019-03-24T02:28:52.981Z,12.23
2019-03-24T02:31:23.652Z,16.00
2019-03-24T02:33:54.269Z,9.57
2019-03-24T02:36:25.080Z,7.27
2019-03-24T02:38:55.587Z,12.23
2019-03-24T02:41:26.458Z,11.77
2019-03-24T02:43:57.038Z,12.03
2019-03-24T02:46:27.505Z,11.77
2019-03-24T02:48:58.222Z,11.90
2019-03-24T02:51:28.730Z,11.40
2019-03-24T02:53:59.639Z,7.17
2019-03-24T02:56:30.422Z,10.00
2019-03-24T02:59:01.021Z,9.33
2019-03-24T03:01:32.076Z,11.20
2019-03-24T03:04:02.898Z,12.07
2019-03-24T03:06:33.486Z,11.63
2019-03-24T03:09:05.565Z,12.70
2019-03-24T03:11:36.252Z,6.63
2019-03-24T03:14:07.150Z,9.07
2019-03-24T03:16:39.291Z,7.57
2019-03-24T03:19:10.149Z,9.17
2019-03-24T03:21:40.780Z,10.20
2019-03-24T03:24:11.613Z,10.97
2019-03-24T03:26:42.153Z,4.83
2019-03-24T03:29:12.641Z,6.50
2019-03-24T03:31:43.401Z,10.30
2019-03-24T03:34:14.060Z,13.37
2019-03-24T03:36:44.844Z,6.00
2019-03-24T03:39:15.385Z,8.23
2019-03-24T03:41:46.492Z,7.77
2019-03-24T03:44:17.522Z,9.97
2019-03-24T03:46:52.939Z,8.33
2019-03-24T03:49:21.312Z,8.10
2019-03-24T03:51:52.541Z,6.93
2019-03-24T03:54:25.173Z,14.60
2019-03-24T03:56:55.944Z,8.73
2019-03-24T03:59:27.002Z,5.03
2019-03-24T04:01:58.036Z,5.13
2019-03-24T04:04:28.717Z,18.13
2019-03-24T04:06:59.854Z,8.10
2019-03-24T04:09:30.853Z,26.17
2019-03-24T04:12:02.034Z,5.17
2019-03-24T04:14:32.705Z,7.90
2019-03-24T04:17:07.387Z,6.03
2019-03-24T04:19:36.033Z,5.30
2019-03-24T04:22:07.604Z,9.73
2019-03-24T04:24:38.785Z,6.03
2019-03-24T04:27:09.282Z,4.07
2019-03-24T04:29:40.449Z,5.27
2019-03-24T04:32:11.487Z,5.00
2019-03-24T04:34:42.467Z,5.23
2019-03-24T04:37:13.025Z,7.83
2019-03-24T04:39:43.553Z,8.80
2019-03-24T04:42:14.640Z,6.70
2019-03-24T04:44:45.140Z,6.70
2019-03-24T04:47:16.841Z,9.63
2019-03-24T04:49:47.656Z,6.10
2019-03-24T04:52:18.158Z,5.37
2019-03-24T04:54:49.547Z,9.90
2019-03-24T04:57:20.366Z,7.10
2019-03-24T04:59:50.992Z,6.73
2019-03-24T05:02:22.645Z,8.23
2019-03-24T05:04:53.145Z,3.80
2019-03-24T05:07:24.145Z,7.67
2019-03-24T05:09:55.477Z,5.13
2019-03-24T05:12:26.008Z,5.97
2019-03-24T05:14:57.052Z,4.67
2019-03-24T05:17:27.583Z,7.43
2019-03-24T05:19:58.173Z,7.13
2019-03-24T05:22:29.180Z,12.23
2019-03-24T05:24:59.724Z,7.77
2019-03-24T05:27:30.196Z,7.63
2019-03-24T05:30:00.772Z,5.97
2019-03-24T05:32:31.764Z,6.97
2019-03-24T05:35:02.298Z,6.23
2019-03-24T05:37:34.137Z,3.70
2019-03-24T05:40:05.323Z,4.60
2019-03-24T05:42:36.253Z,4.60
2019-03-24T05:45:08.066Z,4.17
2019-03-24T05:47:39.236Z,3.57
2019-03-24T05:50:10.526Z,4.23
2019-03-24T05:52:41.476Z,6.17
2019-03-24T05:55:12.890Z,9.50
2019-03-24T05:57:44.904Z,6.40
2019-03-24T06:00:15.731Z,8.20
2019-03-24T06:02:47.125Z,6.53
2019-03-24T06:05:18.163Z,4.73
2019-03-24T06:07:49.761Z,12.90
2019-03-24T06:10:21.230Z,6.40
2019-03-24T06:12:52.097Z,5.47
2019-03-24T06:15:22.620Z,7.33
2019-03-24T06:17:53.672Z,7.23
2019-03-24T06:20:24.785Z,13.20
2019-03-24T06:22:57.508Z,4.20
2019-03-24T06:25:28.064Z,8.80
2019-03-24T06:27:59.096Z,13.40
2019-03-24T06:30:29.737Z,3.80
2019-03-24T06:33:00.764Z,5.70
2019-03-24T06:35:31.304Z,14.13
2019-03-24T06:38:02.172Z,12.57
2019-03-24T06:40:32.725Z,16.87
2019-03-24T06:43:03.709Z,12.20
2019-03-24T06:45:34.337Z,19.90
2019-03-24T06:48:05.105Z,14.90
2019-03-24T06:50:36.192Z,3.83
2019-03-24T06:53:06.754Z,8.60
2019-03-24T06:55:37.353Z,6.23
2019-03-24T06:58:07.925Z,10.00
2019-03-24T07:00:38.756Z,8.87
2019-03-24T07:03:09.713Z,7.17
2019-03-24T07:05:40.441Z,4.90
2019-03-24T07:08:11.253Z,11.00
2019-03-24T07:10:41.827Z,3.83
2019-03-24T07:13:12.628Z,7.90
2019-03-24T07:15:43.696Z,13.27
2019-03-24T07:18:14.358Z,34.03
2019-03-24T07:20:45.388Z,17.73
2019-03-24T07:23:15.976Z,24.57
2019-03-24T07:25:46.463Z,25.83
2019-03-24T07:28:16.973Z,30.80
2019-03-24T07:30:48.013Z,24.63
2019-03-24T07:33:18.608Z,19.23
2019-03-24T07:35:49.157Z,26.07
2019-03-24T07:38:19.656Z,26.97
2019-03-24T07:40:50.278Z,23.17
2019-03-24T07:43:20.809Z,22.13
2019-03-24T07:45:51.422Z,18.23
2019-03-24T07:48:22.000Z,30.03
2019-03-24T07:50:52.584Z,24.33
2019-03-24T07:53:23.104Z,19.20
2019-03-24T07:55:53.665Z,16.93
2019-03-24T07:58:24.164Z,19.53
2019-03-24T08:00:55.044Z,30.87
2019-03-24T08:03:25.594Z,14.67
2019-03-24T08:05:56.193Z,13.83
2019-03-24T08:08:26.696Z,14.33
2019-03-24T08:10:57.851Z,11.60
2019-03-24T08:13:28.743Z,18.33
2019-03-24T08:15:59.376Z,15.67
2019-03-24T08:18:30.394Z,13.93
2019-03-24T08:21:01.013Z,18.23
2019-03-24T08:23:31.581Z,13.10
2019-03-24T08:26:02.216Z,15.70
2019-03-24T08:28:32.783Z,18.27
2019-03-24T08:31:03.281Z,37.87
2019-03-24T08:33:33.901Z,24.17
2019-03-24T08:36:04.388Z,30.13
2019-03-24T08:38:35.273Z,29.03
2019-03-24T08:41:06.289Z,17.30
2019-03-24T08:43:36.890Z,14.97
2019-03-24T08:46:07.718Z,22.47
2019-03-24T08:48:41.031Z,23.33
2019-03-24T08:51:10.472Z,35.13
2019-03-24T08:53:41.020Z,21.73
2019-03-24T08:56:11.605Z,24.67
2019-03-24T08:58:42.126Z,19.00
2019-03-24T09:01:13.091Z,21.00
2019-03-24T09:03:43.618Z,17.30
2019-03-24T09:06:14.164Z,15.20
2019-03-24T09:08:44.660Z,10.23
2019-03-24T09:11:15.217Z,24.43
2019-03-24T09:13:45.926Z,15.77
2019-03-24T09:16:16.942Z,25.73
2019-03-24T09:18:52.889Z,21.73
2019-03-24T09:21:21.532Z,28.73
2019-03-24T09:23:52.107Z,18.33
2019-03-24T09:26:23.361Z,16.60
2019-03-24T09:28:59.418Z,18.73
2019-03-24T09:31:30.649Z,22.50
2019-03-24T09:34:01.173Z,23.33
2019-03-24T09:36:32.020Z,20.23
2019-03-24T09:39:02.556Z,16.27
2019-03-24T09:41:36.031Z,23.60
2019-03-24T09:44:06.649Z,16.60
2019-03-24T09:46:37.256Z,18.03
2019-03-24T09:49:07.767Z,18.57
2019-03-24T09:51:38.331Z,16.47
2019-03-24T09:54:09.201Z,13.47
2019-03-24T09:56:39.900Z,19.30
2019-03-24T09:59:10.410Z,16.60
2019-03-24T10:01:41.612Z,19.13
2019-03-24T10:04:12.185Z,17.45
2019-03-24T10:06:43.296Z,18.67
2019-03-24T10:09:13.968Z,19.47
2019-03-24T10:11:44.520Z,22.27
2019-03-24T10:14:16.591Z,14.43
2019-03-24T10:16:47.768Z,13.33
2019-03-24T10:19:18.925Z,13.40
2019-03-24T10:21:50.777Z,9.15
2019-03-24T10:24:21.391Z,10.45
2019-03-24T10:26:52.073Z,12.58
2019-03-24T10:29:22.907Z,12.70
2019-03-24T10:31:54.229Z,19.07
2019-03-24T10:34:24.845Z,16.37
2019-03-24T10:36:55.487Z,13.53
2019-03-24T10:39:26.265Z,20.35
2019-03-24T10:41:57.291Z,17.12
2019-03-24T10:44:28.024Z,21.55
2019-03-24T10:46:58.683Z,22.85
2019-03-24T10:49:29.397Z,19.52
2019-03-24T10:52:01.965Z,17.50
2019-03-24T10:54:32.558Z,18.85
2019-03-24T10:57:05.356Z,20.27
2019-03-24T10:59:35.371Z,15.53
2019-03-24T11:02:05.934Z,21.20
2019-03-24T11:04:36.444Z,17.48
2019-03-24T11:07:07.057Z,11.53
2019-03-24T11:09:39.045Z,15.50
2019-03-24T11:12:09.720Z,19.45
2019-03-24T11:14:41.213Z,16.70
2019-03-24T11:17:11.901Z,13.48
2019-03-24T11:19:42.486Z,15.03
2019-03-24T11:22:14.046Z,18.35
2019-03-24T11:24:47.219Z,14.80
2019-03-24T11:27:20.072Z,21.25
2019-03-24T11:29:50.869Z,20.60
2019-03-24T11:32:21.635Z,18.17
2019-03-24T11:34:52.406Z,30.10
2019-03-24T11:37:23.141Z,14.40
2019-03-24T11:39:53.731Z,12.40
2019-03-24T11:42:24.384Z,13.68
2019-03-24T11:44:55.001Z,12.63
2019-03-24T11:47:26.750Z,12.53
2019-03-24T11:49:57.708Z,8.88
2019-03-24T11:52:28.388Z,16.42
2019-03-24T11:54:59.589Z,15.72
2019-03-24T11:57:30.178Z,19.27
2019-03-24T12:00:01.635Z,15.40
2019-03-24T12:02:32.733Z,10.93
2019-03-24T12:05:03.285Z,12.35
2019-03-24T12:07:33.972Z,10.40
2019-03-24T12:10:07.570Z,17.10
2019-03-24T12:12:38.634Z,12.98
2019-03-24T12:15:11.469Z,18.53
2019-03-24T12:17:43.371Z,18.17
2019-03-24T12:20:29.278Z,23.57
2019-03-24T12:23:37.040Z,11.22
2019-03-24T12:26:09.169Z,15.40
2019-03-24T12:28:39.713Z,16.73
2019-03-24T12:31:11.477Z,16.93
2019-03-24T12:33:43.577Z,20.97
2019-03-24T12:36:14.730Z,16.35
2019-03-24T12:38:47.297Z,27.70
2019-03-24T12:41:18.030Z,16.40
2019-03-24T12:43:49.005Z,23.42
2019-03-24T12:46:19.519Z,28.40
2019-03-24T12:48:50.143Z,19.05
2019-03-24T12:51:22.061Z,18.20
2019-03-24T12:53:52.905Z,20.27
2019-03-24T12:56:25.148Z,47.20
2019-03-24T12:58:55.865Z,52.35
2019-03-24T13:01:26.471Z,28.95
2019-03-24T13:03:57.108Z,17.03
2019-03-24T13:06:27.822Z,19.62
2019-03-24T13:08:58.425Z,14.33
2019-03-24T13:11:29.061Z,16.40
2019-03-24T13:13:59.749Z,16.47
2019-03-24T13:16:30.332Z,19.57
2019-03-24T13:19:00.865Z,16.93
2019-03-24T13:21:31.417Z,15.73
2019-03-24T13:24:01.945Z,17.30
2019-03-24T13:26:32.854Z,27.70
2019-03-24T13:29:03.422Z,25.53
2019-03-24T13:31:34.389Z,43.83
2019-03-24T13:34:05.007Z,13.30
2019-03-24T13:36:35.602Z,20.63
2019-03-24T13:39:07.921Z,20.20
2019-03-24T13:41:38.460Z,13.10
2019-03-24T13:44:08.982Z,14.87
2019-03-24T13:46:39.517Z,16.00
2019-03-24T13:49:10.583Z,14.17
2019-03-24T13:51:41.693Z,52.80
2019-03-24T13:54:12.274Z,18.97
2019-03-24T13:56:42.869Z,12.57
2019-03-24T13:59:13.400Z,19.53
2019-03-24T14:01:44.021Z,12.80
2019-03-24T14:04:14.544Z,19.23
2019-03-24T14:06:45.392Z,16.47
2019-03-24T14:09:15.927Z,39.43
2019-03-24T14:11:46.517Z,22.40
2019-03-24T14:14:17.157Z,12.83
2019-03-24T14:16:47.738Z,16.27
2019-03-24T14:19:19.404Z,14.67
2019-03-24T14:21:50.041Z,19.03
2019-03-24T14:24:21.065Z,18.67
2019-03-24T14:26:51.827Z,17.97
2019-03-24T14:29:22.425Z,17.73
2019-03-24T14:31:52.975Z,20.53
2019-03-24T14:34:23.608Z,13.47
2019-03-24T14:36:54.176Z,15.67
2019-03-24T14:39:24.834Z,11.77
2019-03-24T14:41:55.968Z,12.03
2019-03-24T14:44:26.521Z,13.53
2019-03-24T14:46:57.105Z,14.97
2019-03-24T14:49:28.129Z,12.37
2019-03-24T14:51:58.882Z,13.03
2019-03-24T14:54:29.496Z,9.10
2019-03-24T14:57:00.031Z,13.90
2019-03-24T14:59:30.616Z,13.10
2019-03-24T15:02:01.147Z,13.87
2019-03-24T15:04:31.777Z,9.70
2019-03-24T15:07:02.405Z,11.80
2019-03-24T15:09:33.630Z,19.83
2019-03-24T15:12:04.670Z,15.40
2019-03-24T15:14:35.897Z,20.23
2019-03-24T15:17:06.837Z,15.33
2019-03-24T15:19:37.395Z,15.40
2019-03-24T15:22:08.177Z,12.40
2019-03-24T15:24:39.376Z,14.93
2019-03-24T15:27:10.676Z,18.00
2019-03-24T15:29:41.486Z,24.23
2019-03-24T15:32:13.202Z,17.80
2019-03-24T15:34:43.772Z,23.23
2019-03-24T15:37:14.373Z,16.40
2019-03-24T15:39:44.912Z,11.80
2019-03-24T15:42:15.531Z,19.03
2019-03-24T15:44:46.324Z,17.50
2019-03-24T15:47:16.920Z,10.20
2019-03-24T15:49:47.557Z,17.57
2019-03-24T15:52:18.325Z,11.83
2019-03-24T15:54:48.849Z,14.13
2019-03-24T15:57:19.442Z,13.70
2019-03-24T15:59:52.545Z,11.20
2019-03-24T16:02:23.120Z,15.23
2019-03-24T16:04:53.670Z,13.80
2019-03-24T16:07:24.251Z,16.43
2019-03-24T16:09:54.888Z,10.53
2019-03-24T16:12:25.574Z,11.70
2019-03-24T16:14:56.183Z,7.07
2019-03-24T16:17:26.815Z,15.30
2019-03-24T16:19:57.345Z,14.53
2019-03-24T16:22:27.860Z,9.80
2019-03-24T16:24:58.440Z,10.20
2019-03-24T16:27:28.997Z,12.53
2019-03-24T16:29:59.604Z,15.53
2019-03-24T16:32:30.175Z,10.40
2019-03-24T16:35:00.730Z,9.80
2019-03-24T16:37:31.437Z,9.00
2019-03-24T16:40:01.987Z,11.50
2019-03-24T16:42:32.540Z,12.13
2019-03-24T16:45:03.065Z,10.50
2019-03-24T16:47:33.685Z,10.27
2019-03-24T16:50:04.386Z,13.67
2019-03-24T16:52:34.921Z,15.57
2019-03-24T16:55:06.058Z,13.60
2019-03-24T16:57:36.589Z,9.50
2019-03-24T17:00:07.862Z,8.67
2019-03-24T17:02:38.628Z,7.07
2019-03-24T17:05:09.440Z,7.80
2019-03-24T17:07:40.041Z,16.50
2019-03-24T17:10:10.907Z,16.33
2019-03-24T17:12:41.536Z,15.40
2019-03-24T17:15:12.408Z,15.40
2019-03-24T17:17:42.950Z,7.43
2019-03-24T17:20:13.730Z,8.00
2019-03-24T17:22:44.350Z,12.90
2019-03-24T17:25:15.600Z,18.57
2019-03-24T17:27:46.205Z,10.63
2019-03-24T17:30:17.171Z,7.63
2019-03-24T17:32:47.776Z,15.97
2019-03-24T17:35:18.450Z,10.13
2019-03-24T17:37:49.857Z,9.13
2019-03-24T17:40:20.482Z,11.40
2019-03-24T17:42:51.101Z,9.00
2019-03-24T17:45:21.821Z,9.97
2019-03-24T17:47:52.443Z,5.67
2019-03-24T17:50:23.183Z,5.97
2019-03-24T17:52:53.791Z,7.53
2019-03-24T17:55:27.768Z,5.80
2019-03-24T17:57:57.277Z,9.80
2019-03-24T18:00:38.941Z,8.70
2019-03-24T18:03:09.612Z,9.60
2019-03-24T18:05:40.385Z,11.40
2019-03-24T18:08:11.070Z,6.07
2019-03-24T18:10:41.751Z,12.50
2019-03-24T18:13:13.508Z,6.17
2019-03-24T18:15:44.041Z,6.67
2019-03-24T18:18:14.786Z,8.77
2019-03-24T18:20:45.355Z,8.23
2019-03-24T18:23:16.355Z,10.03
2019-03-24T18:25:46.896Z,5.63
2019-03-24T18:28:17.554Z,13.73
2019-03-24T18:30:48.789Z,6.07
2019-03-24T18:33:19.357Z,8.57
2019-03-24T18:35:50.282Z,7.70
2019-03-24T18:38:21.336Z,9.67
2019-03-24T18:40:52.173Z,7.33
2019-03-24T18:43:22.934Z,16.33
2019-03-24T18:45:53.506Z,8.20
2019-03-24T18:48:24.121Z,11.13
2019-03-24T18:50:54.685Z,9.90
2019-03-24T18:53:25.460Z,5.83
2019-03-24T18:55:56.113Z,4.83
2019-03-24T18:58:26.740Z,7.33
2019-03-24T19:00:57.465Z,6.07
2019-03-24T19:03:28.074Z,7.80
2019-03-24T19:06:00.184Z,7.20
2019-03-24T19:08:31.037Z,6.50
2019-03-24T19:11:02.072Z,5.57
2019-03-24T19:13:33.289Z,7.23
2019-03-24T19:16:04.811Z,8.40
2019-03-24T19:18:35.312Z,7.67
2019-03-24T19:21:09.966Z,5.37
2019-03-24T19:23:41.253Z,4.43
2019-03-24T19:26:11.944Z,4.30
2019-03-24T19:28:43.052Z,4.10
2019-03-24T19:31:14.112Z,4.93
2019-03-24T19:33:45.775Z,8.33
2019-03-24T19:36:16.293Z,4.27
2019-03-24T19:38:47.550Z,12.20
2019-03-24T19:41:18.084Z,5.13
2019-03-24T19:43:49.336Z,3.90
2019-03-24T19:46:20.502Z,6.90
2019-03-24T19:48:51.588Z,3.90
2019-03-24T19:51:24.311Z,6.87
2019-03-24T19:53:54.964Z,7.43
2019-03-24T19:56:25.492Z,7.40
2019-03-24T19:58:56.764Z,4.77
2019-03-24T20:01:27.734Z,9.40
2019-03-24T20:03:58.901Z,8.60
2019-03-24T20:06:29.993Z,7.70
2019-03-24T20:09:01.006Z,3.97
2019-03-24T20:11:32.093Z,8.30
2019-03-24T20:14:02.898Z,6.20
2019-03-24T20:16:33.744Z,4.73
2019-03-24T20:19:06.804Z,4.57
2019-03-24T20:21:37.327Z,3.60
2019-03-24T20:24:08.643Z,3.77
2019-03-24T20:26:39.257Z,4.40
2019-03-24T20:29:10.572Z,6.07
2019-03-24T20:31:42.704Z,12.03
2019-03-24T20:34:14.880Z,3.90
2019-03-24T20:36:47.301Z,5.60
2019-03-24T20:39:19.148Z,13.83
2019-03-24T20:41:49.731Z,3.60
2019-03-24T20:44:23.217Z,5.60
2019-03-24T20:46:55.475Z,5.90
2019-03-24T20:49:28.673Z,3.17
2019-03-24T20:52:00.100Z,7.90
2019-03-24T20:54:34.027Z,3.93
2019-03-24T20:57:05.062Z,3.83
2019-03-24T20:59:35.805Z,9.03
2019-03-24T21:02:06.615Z,3.43
2019-03-24T21:04:37.169Z,5.03
2019-03-24T21:07:08.417Z,6.63
2019-03-24T21:09:39.126Z,3.53
2019-03-24T21:12:09.702Z,7.03
2019-03-24T21:14:40.492Z,3.03
2019-03-24T21:17:11.321Z,3.57
2019-03-24T21:19:42.608Z,3.67
2019-03-24T21:22:13.641Z,4.40
2019-03-24T21:24:44.477Z,7.67
2019-03-24T21:27:15.145Z,3.27
2019-03-24T21:29:45.781Z,3.77
2019-03-24T21:32:16.389Z,5.30
2019-03-24T21:34:47.190Z,4.23
2019-03-24T21:37:17.717Z,6.63
2019-03-24T21:39:48.312Z,2.87
2019-03-24T21:42:19.288Z,2.93
2019-03-24T21:44:49.790Z,9.40
2019-03-24T21:47:20.273Z,4.63
2019-03-24T21:49:50.981Z,6.50
2019-03-24T21:52:21.549Z,4.40
2019-03-24T21:54:52.333Z,5.80
2019-03-24T21:57:23.068Z,4.80
2019-03-24T21:59:53.549Z,5.87
2019-03-24T22:02:24.444Z,19.40
2019-03-24T22:04:55.970Z,2.60
2019-03-24T22:07:26.640Z,4.67
2019-03-24T22:09:57.121Z,10.70
2019-03-24T22:12:27.832Z,6.20
2019-03-24T22:14:58.492Z,4.80
2019-03-24T22:17:29.068Z,3.60
2019-03-24T22:19:59.809Z,4.10
2019-03-24T22:22:30.361Z,11.23
2019-03-24T22:25:00.873Z,9.03
2019-03-24T22:27:31.442Z,4.50
2019-03-24T22:30:02.480Z,4.23
2019-03-24T22:32:33.200Z,5.90
2019-03-24T22:35:03.919Z,7.37
2019-03-24T22:37:35.037Z,4.60
2019-03-24T22:40:06.681Z,5.23
2019-03-24T22:42:37.272Z,3.40
2019-03-24T22:45:08.294Z,7.53
2019-03-24T22:47:40.308Z,3.40
2019-03-24T22:50:11.025Z,4.20
2019-03-24T22:52:52.557Z,8.30
2019-03-24T22:55:23.157Z,2.83
2019-03-24T22:57:53.914Z,3.83
2019-03-24T23:01:01.933Z,3.87
2019-03-24T23:03:32.604Z,9.63
2019-03-24T23:06:03.195Z,5.40
2019-03-24T23:08:33.789Z,4.93
2019-03-24T23:11:04.501Z,5.23
2019-03-24T23:13:35.716Z,8.10
2019-03-24T23:16:06.422Z,8.57
2019-03-24T23:18:36.984Z,3.83
2019-03-24T23:21:07.474Z,4.43
2019-03-24T23:23:38.326Z,12.43
2019-03-24T23:26:08.889Z,2.80
2019-03-24T23:28:39.405Z,2.77
2019-03-24T23:31:10.217Z,6.97
2019-03-24T23:33:40.973Z,8.37
2019-03-24T23:36:12.785Z,6.63
2019-03-24T23:38:43.853Z,3.63
2019-03-24T23:41:14.388Z,3.60
2019-03-24T23:43:45.321Z,3.13
2019-03-24T23:46:16.073Z,5.10
2019-03-24T23:48:46.905Z,2.73
2019-03-24T23:51:18.030Z,4.53
2019-03-24T23:53:48.571Z,3.57
2019-03-24T23:56:19.522Z,4.97
2019-03-24T23:58:50.029Z,4.00
